sensor_id;sensor_type;location;lat;lon;timestamp;P1;durP1;ratioP1;P2;durP2;ratioP2
63902;SDS011;50072;50.678;13.938;2023-05-07T00:04:51;10.45;;;5.10;;
63902;SDS011;50072;50.678;13.938;2023-05-07T00:07:19;13.82;;;6.25;;
63902;SDS011;50072;50.678;13.938;2023-05-07T00:09:46;13.10;;;5.43;;
63902;SDS011;50072;50.678;13.938;2023-05-07T00:12:14;10.48;;;5.75;;
63902;SDS011;50072;50.678;13.938;2023-05-07T00:14:40;12.52;;;6.03;;
63902;SDS011;50072;50.678;13.938;2023-05-07T00:17:06;9.63;;;5.32;;
63902;SDS011;50072;50.678;13.938;2023-05-07T00:19:32;9.95;;;5.10;;
63902;SDS011;50072;50.678;13.938;2023-05-07T00:21:59;8.15;;;4.38;;
63902;SDS011;50072;50.678;13.938;2023-05-07T00:27:13;7.95;;;4.07;;
63902;SDS011;50072;50.678;13.938;2023-05-07T00:29:46;7.53;;;3.88;;
63902;SDS011;50072;50.678;13.938;2023-05-07T00:32:12;8.80;;;4.18;;
63902;SDS011;50072;50.678;13.938;2023-05-07T00:34:40;7.60;;;4.10;;
63902;SDS011;50072;50.678;13.938;2023-05-07T00:37:07;10.00;;;4.50;;
63902;SDS011;50072;50.678;13.938;2023-05-07T00:39:35;12.88;;;4.93;;
63902;SDS011;50072;50.678;13.938;2023-05-07T00:42:03;7.43;;;4.15;;
63902;SDS011;50072;50.678;13.938;2023-05-07T00:44:29;12.23;;;4.93;;
63902;SDS011;50072;50.678;13.938;2023-05-07T00:47:01;7.00;;;3.65;;
63902;SDS011;50072;50.678;13.938;2023-05-07T00:49:39;8.15;;;4.30;;
63902;SDS011;50072;50.678;13.938;2023-05-07T00:52:17;8.82;;;4.80;;
63902;SDS011;50072;50.678;13.938;2023-05-07T00:54:46;8.52;;;4.25;;
63902;SDS011;50072;50.678;13.938;2023-05-07T00:57:19;6.88;;;4.20;;
63902;SDS011;50072;50.678;13.938;2023-05-07T00:59:46;9.68;;;4.10;;
63902;SDS011;50072;50.678;13.938;2023-05-07T01:02:14;8.90;;;4.72;;
63902;SDS011;50072;50.678;13.938;2023-05-07T01:04:46;8.18;;;4.25;;
63902;SDS011;50072;50.678;13.938;2023-05-07T01:07:13;9.52;;;5.40;;
63902;SDS011;50072;50.678;13.938;2023-05-07T01:09:46;9.88;;;4.78;;
63902;SDS011;50072;50.678;13.938;2023-05-07T01:12:18;8.13;;;4.80;;
63902;SDS011;50072;50.678;13.938;2023-05-07T01:14:46;8.63;;;4.90;;
63902;SDS011;50072;50.678;13.938;2023-05-07T01:17:14;8.13;;;4.18;;
63902;SDS011;50072;50.678;13.938;2023-05-07T01:19:41;7.60;;;4.30;;
63902;SDS011;50072;50.678;13.938;2023-05-07T01:22:08;8.10;;;4.40;;
63902;SDS011;50072;50.678;13.938;2023-05-07T01:24:38;7.22;;;3.97;;
63902;SDS011;50072;50.678;13.938;2023-05-07T01:27:05;6.88;;;4.13;;
63902;SDS011;50072;50.678;13.938;2023-05-07T01:29:34;6.13;;;3.60;;
63902;SDS011;50072;50.678;13.938;2023-05-07T01:32:00;8.18;;;3.58;;
63902;SDS011;50072;50.678;13.938;2023-05-07T01:34:28;6.57;;;3.95;;
63902;SDS011;50072;50.678;13.938;2023-05-07T01:39:37;6.55;;;3.78;;
63902;SDS011;50072;50.678;13.938;2023-05-07T01:42:05;7.68;;;4.50;;
63902;SDS011;50072;50.678;13.938;2023-05-07T01:44:31;7.10;;;4.35;;
63902;SDS011;50072;50.678;13.938;2023-05-07T01:46:57;7.90;;;4.88;;
63902;SDS011;50072;50.678;13.938;2023-05-07T01:49:24;9.07;;;4.85;;
63902;SDS011;50072;50.678;13.938;2023-05-07T01:51:51;9.27;;;5.32;;
63902;SDS011;50072;50.678;13.938;2023-05-07T01:54:17;8.68;;;5.40;;
63902;SDS011;50072;50.678;13.938;2023-05-07T01:56:44;8.90;;;5.28;;
63902;SDS011;50072;50.678;13.938;2023-05-07T01:59:09;9.13;;;5.38;;
63902;SDS011;50072;50.678;13.938;2023-05-07T02:01:36;8.52;;;5.38;;
63902;SDS011;50072;50.678;13.938;2023-05-07T02:04:07;9.48;;;5.30;;
63902;SDS011;50072;50.678;13.938;2023-05-07T02:06:35;7.50;;;4.60;;
63902;SDS011;50072;50.678;13.938;2023-05-07T02:09:02;9.07;;;4.95;;
63902;SDS011;50072;50.678;13.938;2023-05-07T02:11:28;7.22;;;4.38;;
63902;SDS011;50072;50.678;13.938;2023-05-07T02:13:54;7.63;;;4.35;;
63902;SDS011;50072;50.678;13.938;2023-05-07T02:16:20;6.97;;;4.35;;
63902;SDS011;50072;50.678;13.938;2023-05-07T02:18:47;7.93;;;4.32;;
63902;SDS011;50072;50.678;13.938;2023-05-07T02:21:13;7.45;;;3.65;;
63902;SDS011;50072;50.678;13.938;2023-05-07T02:23:38;7.43;;;4.13;;
63902;SDS011;50072;50.678;13.938;2023-05-07T02:26:04;7.30;;;4.18;;
63902;SDS011;50072;50.678;13.938;2023-05-07T02:28:30;8.00;;;3.95;;
63902;SDS011;50072;50.678;13.938;2023-05-07T02:30:56;8.13;;;4.25;;
63902;SDS011;50072;50.678;13.938;2023-05-07T02:33:23;8.38;;;5.00;;
63902;SDS011;50072;50.678;13.938;2023-05-07T02:35:50;9.13;;;4.55;;
63902;SDS011;50072;50.678;13.938;2023-05-07T02:38:17;9.85;;;5.00;;
63902;SDS011;50072;50.678;13.938;2023-05-07T02:40:43;8.52;;;4.85;;
63902;SDS011;50072;50.678;13.938;2023-05-07T02:43:09;8.63;;;4.43;;
63902;SDS011;50072;50.678;13.938;2023-05-07T02:45:35;10.02;;;4.88;;
63902;SDS011;50072;50.678;13.938;2023-05-07T02:48:03;8.20;;;4.22;;
63902;SDS011;50072;50.678;13.938;2023-05-07T02:50:29;7.45;;;4.50;;
63902;SDS011;50072;50.678;13.938;2023-05-07T02:52:56;6.68;;;4.13;;
63902;SDS011;50072;50.678;13.938;2023-05-07T02:55:28;7.95;;;4.47;;
63902;SDS011;50072;50.678;13.938;2023-05-07T02:57:56;8.30;;;4.65;;
63902;SDS011;50072;50.678;13.938;2023-05-07T03:00:22;9.02;;;5.05;;
63902;SDS011;50072;50.678;13.938;2023-05-07T03:02:49;9.15;;;5.13;;
63902;SDS011;50072;50.678;13.938;2023-05-07T03:05:15;9.02;;;4.78;;
63902;SDS011;50072;50.678;13.938;2023-05-07T03:07:43;8.82;;;5.22;;
63902;SDS011;50072;50.678;13.938;2023-05-07T03:10:10;11.13;;;5.75;;
63902;SDS011;50072;50.678;13.938;2023-05-07T03:12:36;10.57;;;5.40;;
63902;SDS011;50072;50.678;13.938;2023-05-07T03:15:02;13.15;;;5.97;;
63902;SDS011;50072;50.678;13.938;2023-05-07T03:17:28;10.93;;;5.40;;
63902;SDS011;50072;50.678;13.938;2023-05-07T03:19:54;10.63;;;5.65;;
63902;SDS011;50072;50.678;13.938;2023-05-07T03:22:20;12.48;;;5.28;;
63902;SDS011;50072;50.678;13.938;2023-05-07T03:24:46;10.88;;;5.63;;
63902;SDS011;50072;50.678;13.938;2023-05-07T03:27:11;10.18;;;5.78;;
63902;SDS011;50072;50.678;13.938;2023-05-07T03:29:37;10.25;;;5.57;;
63902;SDS011;50072;50.678;13.938;2023-05-07T03:32:03;8.88;;;5.70;;
63902;SDS011;50072;50.678;13.938;2023-05-07T03:34:29;9.88;;;5.60;;
63902;SDS011;50072;50.678;13.938;2023-05-07T03:36:55;11.45;;;5.70;;
63902;SDS011;50072;50.678;13.938;2023-05-07T03:39:21;10.55;;;5.97;;
63902;SDS011;50072;50.678;13.938;2023-05-07T03:41:47;10.32;;;5.50;;
63902;SDS011;50072;50.678;13.938;2023-05-07T03:46:48;10.40;;;5.53;;
63902;SDS011;50072;50.678;13.938;2023-05-07T03:49:14;10.40;;;5.35;;
63902;SDS011;50072;50.678;13.938;2023-05-07T03:51:40;10.35;;;5.45;;
63902;SDS011;50072;50.678;13.938;2023-05-07T03:54:06;10.52;;;5.20;;
63902;SDS011;50072;50.678;13.938;2023-05-07T03:56:37;9.32;;;5.18;;
63902;SDS011;50072;50.678;13.938;2023-05-07T03:59:03;7.78;;;4.78;;
63902;SDS011;50072;50.678;13.938;2023-05-07T04:01:29;9.57;;;5.22;;
63902;SDS011;50072;50.678;13.938;2023-05-07T04:03:55;9.93;;;5.28;;
63902;SDS011;50072;50.678;13.938;2023-05-07T04:06:22;8.90;;;5.15;;
63902;SDS011;50072;50.678;13.938;2023-05-07T04:08:48;10.07;;;5.47;;
63902;SDS011;50072;50.678;13.938;2023-05-07T04:11:15;8.73;;;4.82;;
63902;SDS011;50072;50.678;13.938;2023-05-07T04:13:41;9.15;;;4.97;;
63902;SDS011;50072;50.678;13.938;2023-05-07T04:16:08;10.50;;;5.57;;
63902;SDS011;50072;50.678;13.938;2023-05-07T04:18:33;11.27;;;5.63;;
63902;SDS011;50072;50.678;13.938;2023-05-07T04:20:59;9.10;;;5.20;;
63902;SDS011;50072;50.678;13.938;2023-05-07T04:23:26;10.00;;;5.85;;
63902;SDS011;50072;50.678;13.938;2023-05-07T04:25:52;10.57;;;5.15;;
63902;SDS011;50072;50.678;13.938;2023-05-07T04:28:18;9.98;;;5.20;;
63902;SDS011;50072;50.678;13.938;2023-05-07T04:30:45;8.95;;;4.63;;
63902;SDS011;50072;50.678;13.938;2023-05-07T04:33:11;9.30;;;4.82;;
63902;SDS011;50072;50.678;13.938;2023-05-07T04:35:37;8.25;;;4.82;;
63902;SDS011;50072;50.678;13.938;2023-05-07T04:38:04;7.47;;;4.65;;
63902;SDS011;50072;50.678;13.938;2023-05-07T04:40:29;7.55;;;4.10;;
63902;SDS011;50072;50.678;13.938;2023-05-07T04:43:02;7.20;;;4.40;;
63902;SDS011;50072;50.678;13.938;2023-05-07T04:45:27;7.65;;;4.13;;
63902;SDS011;50072;50.678;13.938;2023-05-07T04:47:56;6.43;;;3.70;;
63902;SDS011;50072;50.678;13.938;2023-05-07T04:50:23;7.38;;;3.85;;
63902;SDS011;50072;50.678;13.938;2023-05-07T04:52:49;5.90;;;3.60;;
63902;SDS011;50072;50.678;13.938;2023-05-07T04:55:16;7.05;;;3.78;;
63902;SDS011;50072;50.678;13.938;2023-05-07T04:57:42;5.45;;;3.55;;
63902;SDS011;50072;50.678;13.938;2023-05-07T05:00:08;5.93;;;3.25;;
63902;SDS011;50072;50.678;13.938;2023-05-07T05:02:36;4.90;;;3.00;;
63902;SDS011;50072;50.678;13.938;2023-05-07T05:05:09;4.32;;;2.88;;
63902;SDS011;50072;50.678;13.938;2023-05-07T05:07:35;4.28;;;2.47;;
63902;SDS011;50072;50.678;13.938;2023-05-07T05:10:04;5.32;;;2.70;;
63902;SDS011;50072;50.678;13.938;2023-05-07T05:12:34;4.03;;;2.63;;
63902;SDS011;50072;50.678;13.938;2023-05-07T05:15:00;6.55;;;2.67;;
63902;SDS011;50072;50.678;13.938;2023-05-07T05:17:26;5.80;;;2.53;;
63902;SDS011;50072;50.678;13.938;2023-05-07T05:19:51;4.13;;;2.47;;
63902;SDS011;50072;50.678;13.938;2023-05-07T05:22:17;5.43;;;2.70;;
63902;SDS011;50072;50.678;13.938;2023-05-07T05:24:43;4.05;;;2.40;;
63902;SDS011;50072;50.678;13.938;2023-05-07T05:27:10;3.78;;;2.40;;
63902;SDS011;50072;50.678;13.938;2023-05-07T05:29:36;3.67;;;2.30;;
63902;SDS011;50072;50.678;13.938;2023-05-07T05:32:03;4.38;;;2.47;;
63902;SDS011;50072;50.678;13.938;2023-05-07T05:34:29;4.05;;;2.50;;
63902;SDS011;50072;50.678;13.938;2023-05-07T05:36:56;4.75;;;2.55;;
63902;SDS011;50072;50.678;13.938;2023-05-07T05:39:22;4.00;;;2.60;;
63902;SDS011;50072;50.678;13.938;2023-05-07T05:41:48;3.95;;;2.70;;
63902;SDS011;50072;50.678;13.938;2023-05-07T05:44:14;5.10;;;3.03;;
63902;SDS011;50072;50.678;13.938;2023-05-07T05:46:40;4.28;;;2.58;;
63902;SDS011;50072;50.678;13.938;2023-05-07T05:49:06;4.03;;;2.47;;
63902;SDS011;50072;50.678;13.938;2023-05-07T05:51:32;3.85;;;2.60;;
63902;SDS011;50072;50.678;13.938;2023-05-07T05:53:58;3.42;;;2.28;;
63902;SDS011;50072;50.678;13.938;2023-05-07T05:56:24;4.95;;;2.70;;
63902;SDS011;50072;50.678;13.938;2023-05-07T05:58:49;4.20;;;2.72;;
63902;SDS011;50072;50.678;13.938;2023-05-07T06:01:15;4.40;;;2.25;;
63902;SDS011;50072;50.678;13.938;2023-05-07T06:03:43;3.28;;;2.20;;
63902;SDS011;50072;50.678;13.938;2023-05-07T06:06:09;3.53;;;2.25;;
63902;SDS011;50072;50.678;13.938;2023-05-07T06:08:34;4.57;;;2.50;;
63902;SDS011;50072;50.678;13.938;2023-05-07T06:11:01;3.90;;;2.50;;
63902;SDS011;50072;50.678;13.938;2023-05-07T06:13:28;4.03;;;2.40;;
63902;SDS011;50072;50.678;13.938;2023-05-07T06:15:54;4.40;;;2.22;;
63902;SDS011;50072;50.678;13.938;2023-05-07T06:18:20;8.98;;;2.10;;
63902;SDS011;50072;50.678;13.938;2023-05-07T06:20:46;4.25;;;2.30;;
63902;SDS011;50072;50.678;13.938;2023-05-07T06:23:12;4.60;;;2.50;;
63902;SDS011;50072;50.678;13.938;2023-05-07T06:25:40;4.38;;;2.47;;
63902;SDS011;50072;50.678;13.938;2023-05-07T06:28:05;3.83;;;2.05;;
63902;SDS011;50072;50.678;13.938;2023-05-07T06:30:31;3.47;;;2.22;;
63902;SDS011;50072;50.678;13.938;2023-05-07T06:32:57;3.42;;;2.45;;
63902;SDS011;50072;50.678;13.938;2023-05-07T06:35:23;4.20;;;2.45;;
63902;SDS011;50072;50.678;13.938;2023-05-07T06:37:49;3.78;;;2.47;;
63902;SDS011;50072;50.678;13.938;2023-05-07T06:40:15;5.07;;;2.50;;
63902;SDS011;50072;50.678;13.938;2023-05-07T06:42:41;8.55;;;3.00;;
63902;SDS011;50072;50.678;13.938;2023-05-07T06:45:08;4.35;;;2.53;;
63902;SDS011;50072;50.678;13.938;2023-05-07T06:47:34;5.40;;;2.58;;
63902;SDS011;50072;50.678;13.938;2023-05-07T06:49:59;5.50;;;2.67;;
63902;SDS011;50072;50.678;13.938;2023-05-07T06:52:25;5.07;;;2.53;;
63902;SDS011;50072;50.678;13.938;2023-05-07T06:54:51;4.82;;;2.50;;
63902;SDS011;50072;50.678;13.938;2023-05-07T06:57:17;4.15;;;2.55;;
63902;SDS011;50072;50.678;13.938;2023-05-07T06:59:43;4.65;;;2.40;;
63902;SDS011;50072;50.678;13.938;2023-05-07T07:02:09;5.68;;;3.20;;
63902;SDS011;50072;50.678;13.938;2023-05-07T07:04:35;5.82;;;4.70;;
63902;SDS011;50072;50.678;13.938;2023-05-07T07:07:00;6.43;;;3.25;;
63902;SDS011;50072;50.678;13.938;2023-05-07T07:09:26;4.43;;;2.55;;
63902;SDS011;50072;50.678;13.938;2023-05-07T07:11:52;5.35;;;3.88;;
63902;SDS011;50072;50.678;13.938;2023-05-07T07:14:18;4.22;;;2.53;;
63902;SDS011;50072;50.678;13.938;2023-05-07T07:16:43;4.93;;;3.05;;
63902;SDS011;50072;50.678;13.938;2023-05-07T07:19:09;4.63;;;3.28;;
63902;SDS011;50072;50.678;13.938;2023-05-07T07:21:35;8.20;;;3.65;;
63902;SDS011;50072;50.678;13.938;2023-05-07T07:24:01;6.07;;;3.17;;
63902;SDS011;50072;50.678;13.938;2023-05-07T07:26:27;4.10;;;2.88;;
63902;SDS011;50072;50.678;13.938;2023-05-07T07:28:53;8.07;;;3.97;;
63902;SDS011;50072;50.678;13.938;2023-05-07T07:31:19;4.20;;;2.80;;
63902;SDS011;50072;50.678;13.938;2023-05-07T07:33:45;5.72;;;3.45;;
63902;SDS011;50072;50.678;13.938;2023-05-07T07:36:10;17.90;;;7.68;;
63902;SDS011;50072;50.678;13.938;2023-05-07T07:38:36;5.80;;;3.17;;
63902;SDS011;50072;50.678;13.938;2023-05-07T07:41:02;4.07;;;2.83;;
63902;SDS011;50072;50.678;13.938;2023-05-07T07:43:28;5.55;;;3.17;;
63902;SDS011;50072;50.678;13.938;2023-05-07T07:45:54;4.28;;;2.60;;
63902;SDS011;50072;50.678;13.938;2023-05-07T07:48:20;4.57;;;2.63;;
63902;SDS011;50072;50.678;13.938;2023-05-07T07:50:48;4.20;;;3.00;;
63902;SDS011;50072;50.678;13.938;2023-05-07T07:53:15;5.03;;;3.05;;
63902;SDS011;50072;50.678;13.938;2023-05-07T07:55:41;5.80;;;3.53;;
63902;SDS011;50072;50.678;13.938;2023-05-07T07:58:07;4.70;;;3.03;;
63902;SDS011;50072;50.678;13.938;2023-05-07T08:00:32;4.65;;;2.90;;
63902;SDS011;50072;50.678;13.938;2023-05-07T08:02:58;5.05;;;3.25;;
63902;SDS011;50072;50.678;13.938;2023-05-07T08:05:24;5.35;;;3.38;;
63902;SDS011;50072;50.678;13.938;2023-05-07T08:07:50;5.50;;;3.15;;
63902;SDS011;50072;50.678;13.938;2023-05-07T08:10:18;4.50;;;3.03;;
63902;SDS011;50072;50.678;13.938;2023-05-07T08:12:51;8.63;;;4.55;;
63902;SDS011;50072;50.678;13.938;2023-05-07T08:15:17;10.18;;;4.53;;
63902;SDS011;50072;50.678;13.938;2023-05-07T08:17:43;7.43;;;4.13;;
63902;SDS011;50072;50.678;13.938;2023-05-07T08:20:09;8.18;;;5.45;;
63902;SDS011;50072;50.678;13.938;2023-05-07T08:22:35;8.18;;;4.88;;
63902;SDS011;50072;50.678;13.938;2023-05-07T08:25:02;7.25;;;4.53;;
63902;SDS011;50072;50.678;13.938;2023-05-07T08:27:28;6.25;;;4.00;;
63902;SDS011;50072;50.678;13.938;2023-05-07T08:29:54;3.72;;;2.90;;
63902;SDS011;50072;50.678;13.938;2023-05-07T08:32:20;4.78;;;3.20;;
63902;SDS011;50072;50.678;13.938;2023-05-07T08:34:47;6.45;;;3.80;;
63902;SDS011;50072;50.678;13.938;2023-05-07T08:37:13;5.93;;;3.78;;
63902;SDS011;50072;50.678;13.938;2023-05-07T08:39:39;5.70;;;3.72;;
63902;SDS011;50072;50.678;13.938;2023-05-07T08:42:05;7.32;;;4.10;;
63902;SDS011;50072;50.678;13.938;2023-05-07T08:44:35;7.28;;;4.68;;
63902;SDS011;50072;50.678;13.938;2023-05-07T08:47:01;6.90;;;3.97;;
63902;SDS011;50072;50.678;13.938;2023-05-07T08:49:28;6.82;;;4.10;;
63902;SDS011;50072;50.678;13.938;2023-05-07T08:51:54;5.55;;;3.78;;
63902;SDS011;50072;50.678;13.938;2023-05-07T08:54:21;5.00;;;3.60;;
63902;SDS011;50072;50.678;13.938;2023-05-07T08:56:48;6.10;;;3.95;;
63902;SDS011;50072;50.678;13.938;2023-05-07T08:59:13;6.10;;;3.63;;
63902;SDS011;50072;50.678;13.938;2023-05-07T09:01:39;9.23;;;5.90;;
63902;SDS011;50072;50.678;13.938;2023-05-07T09:04:05;7.97;;;4.80;;
63902;SDS011;50072;50.678;13.938;2023-05-07T09:06:33;9.77;;;6.18;;
63902;SDS011;50072;50.678;13.938;2023-05-07T09:08:59;9.40;;;4.03;;
63902;SDS011;50072;50.678;13.938;2023-05-07T09:11:26;7.25;;;3.90;;
63902;SDS011;50072;50.678;13.938;2023-05-07T09:13:56;4.97;;;3.45;;
63902;SDS011;50072;50.678;13.938;2023-05-07T09:16:23;6.22;;;3.72;;
63902;SDS011;50072;50.678;13.938;2023-05-07T09:18:53;5.88;;;4.00;;
63902;SDS011;50072;50.678;13.938;2023-05-07T09:21:20;5.47;;;3.53;;
63902;SDS011;50072;50.678;13.938;2023-05-07T09:23:51;7.05;;;4.05;;
63902;SDS011;50072;50.678;13.938;2023-05-07T09:26:18;6.05;;;3.38;;
63902;SDS011;50072;50.678;13.938;2023-05-07T09:28:46;8.57;;;4.38;;
63902;SDS011;50072;50.678;13.938;2023-05-07T09:31:12;7.95;;;4.15;;
63902;SDS011;50072;50.678;13.938;2023-05-07T09:33:38;4.78;;;3.70;;
63902;SDS011;50072;50.678;13.938;2023-05-07T09:36:05;7.75;;;3.92;;
63902;SDS011;50072;50.678;13.938;2023-05-07T09:38:33;44.35;;;6.28;;
63902;SDS011;50072;50.678;13.938;2023-05-07T09:41:04;7.28;;;4.72;;
63902;SDS011;50072;50.678;13.938;2023-05-07T09:43:31;9.63;;;3.75;;
63902;SDS011;50072;50.678;13.938;2023-05-07T09:46:14;5.53;;;3.80;;
63902;SDS011;50072;50.678;13.938;2023-05-07T09:48:44;5.45;;;4.05;;
63902;SDS011;50072;50.678;13.938;2023-05-07T09:51:15;6.65;;;4.22;;
63902;SDS011;50072;50.678;13.938;2023-05-07T09:53:47;9.13;;;4.63;;
63902;SDS011;50072;50.678;13.938;2023-05-07T09:56:14;12.45;;;5.20;;
63902;SDS011;50072;50.678;13.938;2023-05-07T09:58:44;9.38;;;4.95;;
63902;SDS011;50072;50.678;13.938;2023-05-07T10:01:12;6.85;;;4.00;;
63902;SDS011;50072;50.678;13.938;2023-05-07T10:03:40;5.30;;;3.55;;
63902;SDS011;50072;50.678;13.938;2023-05-07T10:06:08;4.93;;;3.45;;
63902;SDS011;50072;50.678;13.938;2023-05-07T10:08:36;5.00;;;3.42;;
63902;SDS011;50072;50.678;13.938;2023-05-07T10:11:06;5.30;;;4.07;;
63902;SDS011;50072;50.678;13.938;2023-05-07T10:13:34;14.57;;;5.03;;
63902;SDS011;50072;50.678;13.938;2023-05-07T10:16:02;10.00;;;4.47;;
63902;SDS011;50072;50.678;13.938;2023-05-07T10:18:31;4.00;;;3.20;;
63902;SDS011;50072;50.678;13.938;2023-05-07T10:21:01;5.10;;;3.60;;
63902;SDS011;50072;50.678;13.938;2023-05-07T10:23:35;5.20;;;3.58;;
63902;SDS011;50072;50.678;13.938;2023-05-07T10:26:04;5.22;;;3.67;;
63902;SDS011;50072;50.678;13.938;2023-05-07T10:28:33;6.30;;;3.80;;
63902;SDS011;50072;50.678;13.938;2023-05-07T10:31:08;4.47;;;3.20;;
63902;SDS011;50072;50.678;13.938;2023-05-07T10:33:39;4.68;;;3.35;;
63902;SDS011;50072;50.678;13.938;2023-05-07T10:36:08;3.50;;;2.80;;
63902;SDS011;50072;50.678;13.938;2023-05-07T10:38:34;6.20;;;4.32;;
63902;SDS011;50072;50.678;13.938;2023-05-07T10:41:01;6.57;;;4.00;;
63902;SDS011;50072;50.678;13.938;2023-05-07T10:43:37;5.22;;;3.63;;
63902;SDS011;50072;50.678;13.938;2023-05-07T10:46:14;6.45;;;4.30;;
63902;SDS011;50072;50.678;13.938;2023-05-07T10:51:30;5.82;;;4.10;;
63902;SDS011;50072;50.678;13.938;2023-05-07T10:56:37;5.93;;;4.20;;
63902;SDS011;50072;50.678;13.938;2023-05-07T10:59:36;5.30;;;3.88;;
63902;SDS011;50072;50.678;13.938;2023-05-07T11:01:59;4.82;;;3.47;;
63902;SDS011;50072;50.678;13.938;2023-05-07T11:04:31;5.43;;;3.65;;
63902;SDS011;50072;50.678;13.938;2023-05-07T11:12:17;4.78;;;3.53;;
63902;SDS011;50072;50.678;13.938;2023-05-07T11:15:10;4.88;;;3.63;;
63902;SDS011;50072;50.678;13.938;2023-05-07T11:17:53;5.50;;;3.33;;
63902;SDS011;50072;50.678;13.938;2023-05-07T11:20:20;7.88;;;4.00;;
63902;SDS011;50072;50.678;13.938;2023-05-07T11:22:47;5.35;;;3.85;;
63902;SDS011;50072;50.678;13.938;2023-05-07T11:25:19;5.15;;;3.95;;
63902;SDS011;50072;50.678;13.938;2023-05-07T11:27:45;17.08;;;11.48;;
63902;SDS011;50072;50.678;13.938;2023-05-07T11:30:16;7.35;;;5.22;;
63902;SDS011;50072;50.678;13.938;2023-05-07T11:32:44;7.03;;;4.65;;
63902;SDS011;50072;50.678;13.938;2023-05-07T11:35:13;5.15;;;3.70;;
63902;SDS011;50072;50.678;13.938;2023-05-07T11:37:41;9.15;;;7.00;;
63902;SDS011;50072;50.678;13.938;2023-05-07T11:40:09;5.63;;;4.10;;
63902;SDS011;50072;50.678;13.938;2023-05-07T11:42:39;6.63;;;4.28;;
63902;SDS011;50072;50.678;13.938;2023-05-07T11:45:08;6.38;;;3.70;;
63902;SDS011;50072;50.678;13.938;2023-05-07T11:47:34;6.03;;;4.50;;
63902;SDS011;50072;50.678;13.938;2023-05-07T11:50:04;5.22;;;3.80;;
63902;SDS011;50072;50.678;13.938;2023-05-07T11:52:33;6.50;;;4.47;;
63902;SDS011;50072;50.678;13.938;2023-05-07T11:55:00;6.40;;;4.30;;
63902;SDS011;50072;50.678;13.938;2023-05-07T11:57:27;7.82;;;5.22;;
63902;SDS011;50072;50.678;13.938;2023-05-07T11:59:57;9.77;;;6.20;;
63902;SDS011;50072;50.678;13.938;2023-05-07T12:02:24;6.45;;;4.40;;
63902;SDS011;50072;50.678;13.938;2023-05-07T12:04:51;7.60;;;4.30;;
63902;SDS011;50072;50.678;13.938;2023-05-07T12:07:18;5.65;;;4.40;;
63902;SDS011;50072;50.678;13.938;2023-05-07T12:09:46;6.20;;;3.95;;
63902;SDS011;50072;50.678;13.938;2023-05-07T12:12:13;7.13;;;4.53;;
63902;SDS011;50072;50.678;13.938;2023-05-07T12:14:43;9.93;;;4.63;;
63902;SDS011;50072;50.678;13.938;2023-05-07T12:17:10;6.07;;;4.10;;
63902;SDS011;50072;50.678;13.938;2023-05-07T12:19:37;5.63;;;4.18;;
63902;SDS011;50072;50.678;13.938;2023-05-07T12:22:04;5.78;;;4.28;;
63902;SDS011;50072;50.678;13.938;2023-05-07T12:27:25;5.30;;;3.97;;
63902;SDS011;50072;50.678;13.938;2023-05-07T12:29:51;24.05;;;13.98;;
63902;SDS011;50072;50.678;13.938;2023-05-07T12:32:18;17.20;;;11.88;;
63902;SDS011;50072;50.678;13.938;2023-05-07T12:34:46;5.40;;;3.92;;
63902;SDS011;50072;50.678;13.938;2023-05-07T12:37:12;5.38;;;3.60;;
63902;SDS011;50072;50.678;13.938;2023-05-07T12:39:43;7.80;;;4.03;;
63902;SDS011;50072;50.678;13.938;2023-05-07T12:42:10;4.65;;;3.47;;
63902;SDS011;50072;50.678;13.938;2023-05-07T12:44:40;5.65;;;3.80;;
63902;SDS011;50072;50.678;13.938;2023-05-07T12:47:07;5.60;;;3.83;;
63902;SDS011;50072;50.678;13.938;2023-05-07T12:49:34;6.05;;;3.92;;
63902;SDS011;50072;50.678;13.938;2023-05-07T12:52:03;5.28;;;3.78;;
63902;SDS011;50072;50.678;13.938;2023-05-07T12:54:32;4.85;;;3.65;;
63902;SDS011;50072;50.678;13.938;2023-05-07T12:59:34;8.55;;;4.20;;
63902;SDS011;50072;50.678;13.938;2023-05-07T13:02:01;8.13;;;4.32;;
63902;SDS011;50072;50.678;13.938;2023-05-07T13:04:27;8.38;;;4.65;;
63902;SDS011;50072;50.678;13.938;2023-05-07T13:06:53;6.50;;;4.60;;
63902;SDS011;50072;50.678;13.938;2023-05-07T13:09:19;8.10;;;4.85;;
63902;SDS011;50072;50.678;13.938;2023-05-07T13:11:45;7.97;;;4.97;;
63902;SDS011;50072;50.678;13.938;2023-05-07T13:14:11;7.22;;;4.80;;
63902;SDS011;50072;50.678;13.938;2023-05-07T13:16:37;8.07;;;5.00;;
63902;SDS011;50072;50.678;13.938;2023-05-07T13:19:03;8.63;;;5.75;;
63902;SDS011;50072;50.678;13.938;2023-05-07T13:21:29;7.55;;;4.70;;
63902;SDS011;50072;50.678;13.938;2023-05-07T13:23:57;5.82;;;4.78;;
63902;SDS011;50072;50.678;13.938;2023-05-07T13:26:23;7.75;;;4.95;;
63902;SDS011;50072;50.678;13.938;2023-05-07T13:28:50;6.32;;;5.05;;
63902;SDS011;50072;50.678;13.938;2023-05-07T13:31:17;9.50;;;5.30;;
63902;SDS011;50072;50.678;13.938;2023-05-07T13:33:43;9.57;;;5.40;;
63902;SDS011;50072;50.678;13.938;2023-05-07T13:36:09;13.75;;;6.75;;
63902;SDS011;50072;50.678;13.938;2023-05-07T13:38:35;10.02;;;6.40;;
63902;SDS011;50072;50.678;13.938;2023-05-07T13:41:01;8.80;;;5.72;;
63902;SDS011;50072;50.678;13.938;2023-05-07T13:43:26;8.68;;;6.20;;
63902;SDS011;50072;50.678;13.938;2023-05-07T13:45:52;9.63;;;6.38;;
63902;SDS011;50072;50.678;13.938;2023-05-07T13:48:18;11.00;;;5.95;;
63902;SDS011;50072;50.678;13.938;2023-05-07T13:50:44;9.15;;;5.00;;
63902;SDS011;50072;50.678;13.938;2023-05-07T13:53:10;6.93;;;5.15;;
63902;SDS011;50072;50.678;13.938;2023-05-07T13:55:36;8.43;;;6.03;;
63902;SDS011;50072;50.678;13.938;2023-05-07T13:58:02;8.05;;;5.70;;
63902;SDS011;50072;50.678;13.938;2023-05-07T14:00:29;8.63;;;6.43;;
63902;SDS011;50072;50.678;13.938;2023-05-07T14:02:55;10.30;;;5.85;;
63902;SDS011;50072;50.678;13.938;2023-05-07T14:05:22;8.55;;;5.60;;
63902;SDS011;50072;50.678;13.938;2023-05-07T14:07:54;8.30;;;5.20;;
63902;SDS011;50072;50.678;13.938;2023-05-07T14:10:22;9.82;;;5.60;;
63902;SDS011;50072;50.678;13.938;2023-05-07T14:12:47;7.25;;;5.13;;
63902;SDS011;50072;50.678;13.938;2023-05-07T14:15:13;8.13;;;5.88;;
63902;SDS011;50072;50.678;13.938;2023-05-07T14:17:40;7.43;;;5.78;;
63902;SDS011;50072;50.678;13.938;2023-05-07T14:20:06;8.00;;;5.50;;
63902;SDS011;50072;50.678;13.938;2023-05-07T14:22:34;11.90;;;5.57;;
63902;SDS011;50072;50.678;13.938;2023-05-07T14:24:59;7.88;;;5.47;;
63902;SDS011;50072;50.678;13.938;2023-05-07T14:27:25;8.90;;;5.72;;
63902;SDS011;50072;50.678;13.938;2023-05-07T14:29:51;12.07;;;5.82;;
63902;SDS011;50072;50.678;13.938;2023-05-07T14:32:17;7.53;;;5.25;;
63902;SDS011;50072;50.678;13.938;2023-05-07T14:34:44;6.95;;;5.10;;
63902;SDS011;50072;50.678;13.938;2023-05-07T14:37:10;7.93;;;4.72;;
63902;SDS011;50072;50.678;13.938;2023-05-07T14:39:36;8.52;;;5.32;;
63902;SDS011;50072;50.678;13.938;2023-05-07T14:42:04;9.18;;;5.32;;
63902;SDS011;50072;50.678;13.938;2023-05-07T14:44:30;6.65;;;5.07;;
63902;SDS011;50072;50.678;13.938;2023-05-07T14:46:58;6.72;;;4.75;;
63902;SDS011;50072;50.678;13.938;2023-05-07T14:49:24;6.28;;;4.57;;
63902;SDS011;50072;50.678;13.938;2023-05-07T14:51:50;6.82;;;4.63;;
63902;SDS011;50072;50.678;13.938;2023-05-07T14:54:16;7.15;;;4.68;;
63902;SDS011;50072;50.678;13.938;2023-05-07T14:56:44;6.63;;;4.50;;
63902;SDS011;50072;50.678;13.938;2023-05-07T14:59:10;6.25;;;4.32;;
63902;SDS011;50072;50.678;13.938;2023-05-07T15:01:36;8.27;;;4.60;;